Impacts TAF Board INFO
FOR SITUATIONAL AWARENESS. NOT TO BE USED FOR FLIGHT PLANNING PURPOSES.
IDs:

KBWI - Baltimore-Washington, MD, US

Issued at 0849 UTC 24 Jun 2018
Updated at 1040 UTC 24 Jun 2018
Potential Impact None Slight Moderate High
Time<<25/11Z 25/12Z 25/13Z 25/14Z 25/15Z 25/16Z 25/17Z 25/18Z 25/19Z 25/20Z 25/21Z 25/22Z 25/23Z
Type PRVL
VIS >6
CIG --
Cover SCT
FltCat VFR
WX --
WDir 330
WSpd 6
WGst --

Raw TAF
KBWI 240849Z 2409/2512 VRB03KT 5SM BR SCT150
  FM241200 26004KT P6SM SCT045 BKN090
  FM241800 25007KT P6SM BKN050
  FM250000 28006KT P6SM SCT050
  FM250400 29006KT P6SM SCT200
  FM251100 33006KT P6SM SCT200


METAR Board
Radar Display
Forecast Discussion

FOR SITUATIONAL AWARENESS. NOT TO BE USED FOR FLIGHT PLANNING PURPOSES.